sensor_id;sensor_type;location;lat;lon;timestamp;pressure;altitude;pressure_sealevel;temperature;humidity
46534;BME280;32260;52.008;4.752;2023-04-25T00:00:20;101215.53;;;9.05;60.93
46534;BME280;32260;52.008;4.752;2023-04-25T00:02:46;101212.09;;;8.97;61.44
46534;BME280;32260;52.008;4.752;2023-04-25T00:05:13;101215.56;;;9.02;60.94
46534;BME280;32260;52.008;4.752;2023-04-25T00:07:41;101217.34;;;9.00;60.70
46534;BME280;32260;52.008;4.752;2023-04-25T00:10:09;101217.34;;;9.03;61.18
46534;BME280;32260;52.008;4.752;2023-04-25T00:12:36;101216.44;;;9.03;61.25
46534;BME280;32260;52.008;4.752;2023-04-25T00:15:03;101227.91;;;9.00;61.18
46534;BME280;32260;52.008;4.752;2023-04-25T00:17:30;101226.16;;;8.99;60.70
46534;BME280;32260;52.008;4.752;2023-04-25T00:19:57;101229.69;;;8.98;60.73
46534;BME280;32260;52.008;4.752;2023-04-25T00:22:24;101229.72;;;8.95;61.25
46534;BME280;32260;52.008;4.752;2023-04-25T00:24:50;101232.38;;;8.94;60.59
46534;BME280;32260;52.008;4.752;2023-04-25T00:27:16;101238.56;;;8.91;60.78
46534;BME280;32260;52.008;4.752;2023-04-25T00:29:42;101244.75;;;8.85;60.82
46534;BME280;32260;52.008;4.752;2023-04-25T00:32:08;101236.81;;;8.87;60.69
46534;BME280;32260;52.008;4.752;2023-04-25T00:34:34;101243.91;;;8.85;61.14
46534;BME280;32260;52.008;4.752;2023-04-25T00:37:00;101237.75;;;8.81;61.17
46534;BME280;32260;52.008;4.752;2023-04-25T00:39:28;101238.66;;;8.79;61.11
46534;BME280;32260;52.008;4.752;2023-04-25T00:41:55;101242.16;;;8.78;60.84
46534;BME280;32260;52.008;4.752;2023-04-25T00:44:22;101241.31;;;8.74;60.83
46534;BME280;32260;52.008;4.752;2023-04-25T00:46:48;101241.31;;;8.71;60.84
46534;BME280;32260;52.008;4.752;2023-04-25T00:49:15;101247.50;;;8.68;61.42
46534;BME280;32260;52.008;4.752;2023-04-25T00:51:43;101246.63;;;8.66;61.19
46534;BME280;32260;52.008;4.752;2023-04-25T00:54:12;101250.16;;;8.65;61.08
46534;BME280;32260;52.008;4.752;2023-04-25T00:56:40;101253.69;;;8.64;60.97
46534;BME280;32260;52.008;4.752;2023-04-25T00:59:06;101251.91;;;8.65;61.44
46534;BME280;32260;52.008;4.752;2023-04-25T01:01:33;101255.44;;;8.67;61.12
46534;BME280;32260;52.008;4.752;2023-04-25T01:03:59;101250.13;;;8.71;60.84
46534;BME280;32260;52.008;4.752;2023-04-25T01:06:26;101254.50;;;8.76;60.92
46534;BME280;32260;52.008;4.752;2023-04-25T01:08:53;101255.34;;;8.81;61.23
46534;BME280;32260;52.008;4.752;2023-04-25T01:11:19;101245.66;;;8.83;61.28
46534;BME280;32260;52.008;4.752;2023-04-25T01:13:45;101259.75;;;8.85;61.26
46534;BME280;32260;52.008;4.752;2023-04-25T01:16:12;101257.09;;;8.83;61.25
46534;BME280;32260;52.008;4.752;2023-04-25T01:18:39;101257.09;;;8.85;61.24
46534;BME280;32260;52.008;4.752;2023-04-25T01:21:09;101252.69;;;8.84;61.13
46534;BME280;32260;52.008;4.752;2023-04-25T01:23:39;101253.59;;;8.80;60.93
46534;BME280;32260;52.008;4.752;2023-04-25T01:26:08;101252.75;;;8.74;61.11
46534;BME280;32260;52.008;4.752;2023-04-25T01:28:35;101262.44;;;8.71;60.61
46534;BME280;32260;52.008;4.752;2023-04-25T01:31:01;101266.91;;;8.67;60.42
46534;BME280;32260;52.008;4.752;2023-04-25T01:33:28;101264.28;;;8.63;60.92
46534;BME280;32260;52.008;4.752;2023-04-25T01:35:55;101265.16;;;8.57;60.65
46534;BME280;32260;52.008;4.752;2023-04-25T01:38:21;101265.19;;;8.54;60.44
46534;BME280;32260;52.008;4.752;2023-04-25T01:40:50;101278.41;;;8.52;61.03
46534;BME280;32260;52.008;4.752;2023-04-25T01:43:17;101269.59;;;8.47;60.84
46534;BME280;32260;52.008;4.752;2023-04-25T01:45:43;101270.50;;;8.46;60.51
46534;BME280;32260;52.008;4.752;2023-04-25T01:48:11;101274.91;;;8.42;60.54
46534;BME280;32260;52.008;4.752;2023-04-25T01:50:39;101278.41;;;8.38;61.11
46534;BME280;32260;52.008;4.752;2023-04-25T01:53:05;101284.59;;;8.34;60.66
46534;BME280;32260;52.008;4.752;2023-04-25T01:55:32;101288.13;;;8.33;60.63
46534;BME280;32260;52.008;4.752;2023-04-25T01:57:58;101282.84;;;8.33;61.14
46534;BME280;32260;52.008;4.752;2023-04-25T02:00:25;101280.22;;;8.27;60.50
46534;BME280;32260;52.008;4.752;2023-04-25T02:02:52;101290.78;;;8.32;60.71
46534;BME280;32260;52.008;4.752;2023-04-25T02:05:19;101289.88;;;8.30;61.01
46534;BME280;32260;52.008;4.752;2023-04-25T02:07:48;101293.44;;;8.30;60.41
46534;BME280;32260;52.008;4.752;2023-04-25T02:10:14;101285.47;;;8.29;60.58
46534;BME280;32260;52.008;4.752;2023-04-25T02:12:40;101289.91;;;8.26;60.93
46534;BME280;32260;52.008;4.752;2023-04-25T02:15:07;101291.66;;;8.26;60.77
46534;BME280;32260;52.008;4.752;2023-04-25T02:17:33;101289.03;;;8.28;60.33
46534;BME280;32260;52.008;4.752;2023-04-25T02:19:59;101281.97;;;8.30;60.78
46534;BME280;32260;52.008;4.752;2023-04-25T02:22:25;101294.28;;;8.35;60.89
46534;BME280;32260;52.008;4.752;2023-04-25T02:24:53;101281.94;;;8.39;60.32
46534;BME280;32260;52.008;4.752;2023-04-25T02:27:20;101284.56;;;8.40;60.46
46534;BME280;32260;52.008;4.752;2023-04-25T02:29:46;101292.50;;;8.47;60.87
46534;BME280;32260;52.008;4.752;2023-04-25T02:32:12;101296.00;;;8.50;60.39
46534;BME280;32260;52.008;4.752;2023-04-25T02:34:39;101296.88;;;8.55;60.83
46534;BME280;32260;52.008;4.752;2023-04-25T02:37:05;101288.06;;;8.61;60.28
46534;BME280;32260;52.008;4.752;2023-04-25T02:39:31;101282.72;;;8.66;60.56
46534;BME280;32260;52.008;4.752;2023-04-25T02:41:57;101282.72;;;8.70;60.70
46534;BME280;32260;52.008;4.752;2023-04-25T02:44:23;101289.72;;;8.74;60.33
46534;BME280;32260;52.008;4.752;2023-04-25T02:46:49;101290.59;;;8.78;60.64
46534;BME280;32260;52.008;4.752;2023-04-25T02:49:15;101291.47;;;8.82;60.01
46534;BME280;32260;52.008;4.752;2023-04-25T02:51:42;101291.47;;;8.85;59.75
46534;BME280;32260;52.008;4.752;2023-04-25T02:54:08;101294.03;;;8.89;59.79
46534;BME280;32260;52.008;4.752;2023-04-25T02:56:34;101293.16;;;8.92;60.14
46534;BME280;32260;52.008;4.752;2023-04-25T02:59:00;101290.50;;;8.95;59.57
46534;BME280;32260;52.008;4.752;2023-04-25T03:01:26;101288.72;;;8.99;59.92
46534;BME280;32260;52.008;4.752;2023-04-25T03:03:52;101284.31;;;8.99;59.72
46534;BME280;32260;52.008;4.752;2023-04-25T03:06:18;101288.72;;;9.00;59.83
46534;BME280;32260;52.008;4.752;2023-04-25T03:08:44;101289.56;;;9.01;59.58
46534;BME280;32260;52.008;4.752;2023-04-25T03:11:10;101298.38;;;9.04;59.66
46534;BME280;32260;52.008;4.752;2023-04-25T03:13:36;101298.41;;;9.01;59.12
46534;BME280;32260;52.008;4.752;2023-04-25T03:16:02;101293.09;;;9.03;59.37
46534;BME280;32260;52.008;4.752;2023-04-25T03:18:29;101303.66;;;9.03;58.86
46534;BME280;32260;52.008;4.752;2023-04-25T03:20:55;101298.38;;;9.04;58.70
46534;BME280;32260;52.008;4.752;2023-04-25T03:23:21;101296.56;;;9.10;59.24
46534;BME280;32260;52.008;4.752;2023-04-25T03:25:47;101304.50;;;9.13;59.04
46534;BME280;32260;52.008;4.752;2023-04-25T03:28:14;101305.41;;;9.09;58.44
46534;BME280;32260;52.008;4.752;2023-04-25T03:30:40;101307.22;;;9.03;58.43
46534;BME280;32260;52.008;4.752;2023-04-25T03:33:06;101307.13;;;9.10;58.97
46534;BME280;32260;52.008;4.752;2023-04-25T03:35:32;101307.13;;;9.14;59.37
46534;BME280;32260;52.008;4.752;2023-04-25T03:37:58;101308.91;;;9.14;58.81
46534;BME280;32260;52.008;4.752;2023-04-25T03:40:24;101300.03;;;9.18;59.38
46534;BME280;32260;52.008;4.752;2023-04-25T03:42:50;101295.59;;;9.23;59.33
46534;BME280;32260;52.008;4.752;2023-04-25T03:45:16;101316.75;;;9.23;59.43
46534;BME280;32260;52.008;4.752;2023-04-25T03:47:42;101312.34;;;9.25;59.14
46534;BME280;32260;52.008;4.752;2023-04-25T03:50:09;101314.13;;;9.21;59.08
46534;BME280;32260;52.008;4.752;2023-04-25T03:52:36;101322.06;;;9.25;59.11
46534;BME280;32260;52.008;4.752;2023-04-25T03:55:02;101314.09;;;9.26;58.77
46534;BME280;32260;52.008;4.752;2023-04-25T03:57:28;101307.94;;;9.22;58.72
46534;BME280;32260;52.008;4.752;2023-04-25T03:59:54;101309.72;;;9.23;59.07
46534;BME280;32260;52.008;4.752;2023-04-25T04:02:20;101320.28;;;9.23;58.87
46534;BME280;32260;52.008;4.752;2023-04-25T04:04:46;101324.69;;;9.23;59.04
46534;BME280;32260;52.008;4.752;2023-04-25T04:07:13;101330.88;;;9.20;59.48
46534;BME280;32260;52.008;4.752;2023-04-25T04:09:39;101331.78;;;9.18;58.96
46534;BME280;32260;52.008;4.752;2023-04-25T04:12:05;101334.41;;;9.18;59.00
46534;BME280;32260;52.008;4.752;2023-04-25T04:14:31;101335.34;;;9.14;58.92
46534;BME280;32260;52.008;4.752;2023-04-25T04:16:57;101337.97;;;9.15;58.91
46534;BME280;32260;52.008;4.752;2023-04-25T04:19:23;101331.81;;;9.12;58.78
46534;BME280;32260;52.008;4.752;2023-04-25T04:21:49;101345.91;;;9.14;59.47
46534;BME280;32260;52.008;4.752;2023-04-25T04:24:15;101351.16;;;9.17;59.23
46534;BME280;32260;52.008;4.752;2023-04-25T04:26:42;101348.56;;;9.14;58.89
46534;BME280;32260;52.008;4.752;2023-04-25T04:29:10;101350.28;;;9.16;59.10
46534;BME280;32260;52.008;4.752;2023-04-25T04:31:36;101350.28;;;9.16;58.98
46534;BME280;32260;52.008;4.752;2023-04-25T04:34:03;101349.41;;;9.16;59.29
46534;BME280;32260;52.008;4.752;2023-04-25T04:36:29;101345.84;;;9.23;59.00
46534;BME280;32260;52.008;4.752;2023-04-25T04:38:55;101356.44;;;9.25;58.84
46534;BME280;32260;52.008;4.752;2023-04-25T04:41:22;101356.44;;;9.20;58.82
46534;BME280;32260;52.008;4.752;2023-04-25T04:43:48;101361.81;;;9.07;58.10
46534;BME280;32260;52.008;4.752;2023-04-25T04:46:14;101371.44;;;9.13;58.33
46534;BME280;32260;52.008;4.752;2023-04-25T04:48:40;101377.66;;;9.07;58.82
46534;BME280;32260;52.008;4.752;2023-04-25T04:51:06;101376.81;;;8.99;58.35
46534;BME280;32260;52.008;4.752;2023-04-25T04:53:33;101377.72;;;8.95;57.97
46534;BME280;32260;52.008;4.752;2023-04-25T04:55:59;101377.72;;;8.95;58.52
46534;BME280;32260;52.008;4.752;2023-04-25T04:58:25;101373.34;;;8.91;58.14
46534;BME280;32260;52.008;4.752;2023-04-25T05:00:51;101379.47;;;8.96;58.19
46534;BME280;32260;52.008;4.752;2023-04-25T05:03:17;101382.09;;;8.99;58.47
46534;BME280;32260;52.008;4.752;2023-04-25T05:05:43;101381.25;;;8.97;58.25
46534;BME280;32260;52.008;4.752;2023-04-25T05:08:09;101381.22;;;9.00;58.90
46534;BME280;32260;52.008;4.752;2023-04-25T05:10:35;101381.22;;;9.00;58.51
46534;BME280;32260;52.008;4.752;2023-04-25T05:13:01;101387.34;;;9.07;58.53
46534;BME280;32260;52.008;4.752;2023-04-25T05:15:27;101382.03;;;9.12;59.10
46534;BME280;32260;52.008;4.752;2023-04-25T05:17:53;101386.44;;;9.13;58.86
46534;BME280;32260;52.008;4.752;2023-04-25T05:20:19;101398.81;;;9.07;58.66
46534;BME280;32260;52.008;4.752;2023-04-25T05:22:45;101404.09;;;9.09;58.38
46534;BME280;32260;52.008;4.752;2023-04-25T05:25:11;101404.97;;;9.11;58.47
46534;BME280;32260;52.008;4.752;2023-04-25T05:27:37;101405.81;;;9.13;59.12
46534;BME280;32260;52.008;4.752;2023-04-25T05:30:04;101413.75;;;9.13;58.16
46534;BME280;32260;52.008;4.752;2023-04-25T05:32:31;101417.25;;;9.17;58.99
46534;BME280;32260;52.008;4.752;2023-04-25T05:34:57;101419.91;;;9.20;58.50
46534;BME280;32260;52.008;4.752;2023-04-25T05:37:23;101421.63;;;9.24;58.33
46534;BME280;32260;52.008;4.752;2023-04-25T05:39:49;101421.63;;;9.27;58.60
46534;BME280;32260;52.008;4.752;2023-04-25T05:42:15;101428.66;;;9.30;58.76
46534;BME280;32260;52.008;4.752;2023-04-25T05:44:41;101427.78;;;9.32;58.35
46534;BME280;32260;52.008;4.752;2023-04-25T05:47:07;101453.34;;;9.30;57.96
46534;BME280;32260;52.008;4.752;2023-04-25T05:49:34;101455.09;;;9.28;58.26
46534;BME280;32260;52.008;4.752;2023-04-25T05:52:00;101454.25;;;9.23;58.35
46534;BME280;32260;52.008;4.752;2023-04-25T05:54:26;101461.41;;;9.02;58.78
46534;BME280;32260;52.008;4.752;2023-04-25T05:56:52;101464.09;;;8.81;59.58
46534;BME280;32260;52.008;4.752;2023-04-25T05:59:19;101479.09;;;8.62;60.16
46534;BME280;32260;52.008;4.752;2023-04-25T06:01:45;101464.13;;;8.61;59.88
46534;BME280;32260;52.008;4.752;2023-04-25T06:04:12;101464.13;;;8.50;60.75
46534;BME280;32260;52.008;4.752;2023-04-25T06:06:38;101466.75;;;8.43;61.28
46534;BME280;32260;52.008;4.752;2023-04-25T06:09:04;101463.25;;;8.43;60.28
46534;BME280;32260;52.008;4.752;2023-04-25T06:11:30;101479.09;;;8.41;60.56
46534;BME280;32260;52.008;4.752;2023-04-25T06:13:56;101475.56;;;8.39;60.71
46534;BME280;32260;52.008;4.752;2023-04-25T06:16:22;101489.66;;;8.38;61.38
46534;BME280;32260;52.008;4.752;2023-04-25T06:18:51;101489.69;;;8.40;61.37
46534;BME280;32260;52.008;4.752;2023-04-25T06:21:17;101492.31;;;8.41;61.82
46534;BME280;32260;52.008;4.752;2023-04-25T06:23:43;101501.13;;;8.31;61.19
46534;BME280;32260;52.008;4.752;2023-04-25T06:26:09;101506.41;;;8.31;61.83
46534;BME280;32260;52.008;4.752;2023-04-25T06:28:35;101518.72;;;8.15;62.25
46534;BME280;32260;52.008;4.752;2023-04-25T06:31:02;101511.66;;;8.08;62.61
46534;BME280;32260;52.008;4.752;2023-04-25T06:33:28;101501.97;;;8.04;62.40
46534;BME280;32260;52.008;4.752;2023-04-25T06:35:54;101503.72;;;8.02;62.79
46534;BME280;32260;52.008;4.752;2023-04-25T06:38:20;101511.66;;;8.03;62.63
46534;BME280;32260;52.008;4.752;2023-04-25T06:40:46;101507.25;;;8.05;63.11
46534;BME280;32260;52.008;4.752;2023-04-25T06:43:12;101507.25;;;8.07;62.89
46534;BME280;32260;52.008;4.752;2023-04-25T06:45:38;101510.78;;;8.15;63.37
46534;BME280;32260;52.008;4.752;2023-04-25T06:48:04;101514.31;;;8.22;63.77
46534;BME280;32260;52.008;4.752;2023-04-25T06:50:30;101516.06;;;8.32;63.23
46534;BME280;32260;52.008;4.752;2023-04-25T06:52:56;101516.94;;;8.40;63.60
46534;BME280;32260;52.008;4.752;2023-04-25T06:55:23;101519.59;;;8.50;63.76
46534;BME280;32260;52.008;4.752;2023-04-25T06:57:49;101524.00;;;8.62;63.93
46534;BME280;32260;52.008;4.752;2023-04-25T07:00:15;101531.06;;;8.70;63.72
46534;BME280;32260;52.008;4.752;2023-04-25T07:02:44;101524.88;;;8.79;63.96
46534;BME280;32260;52.008;4.752;2023-04-25T07:05:11;101522.22;;;8.85;63.23
46534;BME280;32260;52.008;4.752;2023-04-25T07:07:37;101521.31;;;8.93;62.75
46534;BME280;32260;52.008;4.752;2023-04-25T07:10:03;101516.91;;;8.99;63.23
46534;BME280;32260;52.008;4.752;2023-04-25T07:12:29;101518.66;;;9.05;63.04
46534;BME280;32260;52.008;4.752;2023-04-25T07:14:55;101516.00;;;9.11;62.80
46534;BME280;32260;52.008;4.752;2023-04-25T07:17:22;101521.25;;;9.20;63.28
46534;BME280;32260;52.008;4.752;2023-04-25T07:19:48;101519.47;;;9.29;62.33
46534;BME280;32260;52.008;4.752;2023-04-25T07:22:14;101523.84;;;9.37;62.96
46534;BME280;32260;52.008;4.752;2023-04-25T07:24:41;101514.09;;;9.44;62.67
46534;BME280;32260;52.008;4.752;2023-04-25T07:27:07;101526.44;;;9.45;62.11
46534;BME280;32260;52.008;4.752;2023-04-25T07:29:33;101522.91;;;9.46;61.87
46534;BME280;32260;52.008;4.752;2023-04-25T07:32:02;101529.94;;;9.46;61.85
46534;BME280;32260;52.008;4.752;2023-04-25T07:34:29;101529.06;;;9.50;61.89
46534;BME280;32260;52.008;4.752;2023-04-25T07:36:56;101536.97;;;9.58;61.93
46534;BME280;32260;52.008;4.752;2023-04-25T07:39:22;101535.16;;;9.67;61.79
46534;BME280;32260;52.008;4.752;2023-04-25T07:41:49;101536.88;;;9.75;61.81
46534;BME280;32260;52.008;4.752;2023-04-25T07:44:15;101539.44;;;9.90;61.84
46534;BME280;32260;52.008;4.752;2023-04-25T07:46:41;101542.94;;;9.95;61.34
46534;BME280;32260;52.008;4.752;2023-04-25T07:49:07;101546.38;;;10.07;60.97
46534;BME280;32260;52.008;4.752;2023-04-25T07:51:33;101549.00;;;10.13;60.91
46534;BME280;32260;52.008;4.752;2023-04-25T07:53:59;101543.66;;;10.20;61.08
46534;BME280;32260;52.008;4.752;2023-04-25T07:56:26;101543.59;;;10.27;60.76
46534;BME280;32260;52.008;4.752;2023-04-25T07:58:52;101547.97;;;10.32;60.91
46534;BME280;32260;52.008;4.752;2023-04-25T08:01:18;101544.34;;;10.47;61.12
46534;BME280;32260;52.008;4.752;2023-04-25T08:03:47;101540.69;;;10.62;60.99
46534;BME280;32260;52.008;4.752;2023-04-25T08:06:13;101545.94;;;10.72;60.28
46534;BME280;32260;52.008;4.752;2023-04-25T08:08:39;101545.72;;;10.90;59.75
46534;BME280;32260;52.008;4.752;2023-04-25T08:11:05;101550.94;;;10.99;58.29
46534;BME280;32260;52.008;4.752;2023-04-25T08:13:31;101560.69;;;10.97;56.47
46534;BME280;32260;52.008;4.752;2023-04-25T08:15:57;101561.50;;;11.03;57.54
46534;BME280;32260;52.008;4.752;2023-04-25T08:18:24;101569.44;;;11.07;57.26
46534;BME280;32260;52.008;4.752;2023-04-25T08:20:50;101571.19;;;11.08;56.33
46534;BME280;32260;52.008;4.752;2023-04-25T08:23:16;101574.72;;;11.07;56.24
46534;BME280;32260;52.008;4.752;2023-04-25T08:25:42;101576.56;;;11.02;56.75
46534;BME280;32260;52.008;4.752;2023-04-25T08:28:08;101585.44;;;10.96;57.17
46534;BME280;32260;52.008;4.752;2023-04-25T08:30:34;101577.59;;;10.87;55.83
46534;BME280;32260;52.008;4.752;2023-04-25T08:33:00;101578.34;;;10.98;56.49
46534;BME280;32260;52.008;4.752;2023-04-25T08:35:26;101589.66;;;11.16;56.13
46534;BME280;32260;52.008;4.752;2023-04-25T08:37:52;101594.88;;;11.25;54.59
46534;BME280;32260;52.008;4.752;2023-04-25T08:40:19;101596.59;;;11.31;54.63
46534;BME280;32260;52.008;4.752;2023-04-25T08:42:53;101602.75;;;11.35;53.84
46534;BME280;32260;52.008;4.752;2023-04-25T08:45:21;101613.34;;;11.38;53.85
46534;BME280;32260;52.008;4.752;2023-04-25T08:47:48;101603.69;;;11.27;52.22
46534;BME280;32260;52.008;4.752;2023-04-25T08:50:17;101609.03;;;11.24;51.91
46534;BME280;32260;52.008;4.752;2023-04-25T08:52:45;101619.72;;;11.15;52.33
46534;BME280;32260;52.008;4.752;2023-04-25T08:55:13;101617.22;;;11.01;51.89
46534;BME280;32260;52.008;4.752;2023-04-25T08:57:43;101630.56;;;10.90;52.15
46534;BME280;32260;52.008;4.752;2023-04-25T09:00:11;101644.88;;;10.67;51.14
46534;BME280;32260;52.008;4.752;2023-04-25T09:02:39;101636.97;;;10.64;49.57
46534;BME280;32260;52.008;4.752;2023-04-25T09:05:06;101636.03;;;10.73;50.46
46534;BME280;32260;52.008;4.752;2023-04-25T09:07:32;101651.75;;;10.93;50.44
46534;BME280;32260;52.008;4.752;2023-04-25T09:09:59;101644.53;;;11.11;50.85
46534;BME280;32260;52.008;4.752;2023-04-25T09:12:27;101644.38;;;11.26;49.54
46534;BME280;32260;52.008;4.752;2023-04-25T09:15:12;101658.50;;;11.28;47.67
46534;BME280;32260;52.008;4.752;2023-04-25T09:17:41;101659.50;;;11.15;47.35
46534;BME280;32260;52.008;4.752;2023-04-25T09:20:09;101667.66;;;10.95;46.59
46534;BME280;32260;52.008;4.752;2023-04-25T09:22:36;101670.34;;;10.89;45.75
46534;BME280;32260;52.008;4.752;2023-04-25T09:25:07;101675.53;;;11.03;47.49
46534;BME280;32260;52.008;4.752;2023-04-25T09:27:34;101678.19;;;11.06;47.42
46534;BME280;32260;52.008;4.752;2023-04-25T09:30:00;101687.81;;;11.14;49.91
46534;BME280;32260;52.008;4.752;2023-04-25T09:32:27;101698.38;;;11.21;52.20
46534;BME280;32260;52.008;4.752;2023-04-25T09:34:55;101706.50;;;11.00;52.22
46534;BME280;32260;52.008;4.752;2023-04-25T09:37:28;101715.44;;;10.87;53.05
46534;BME280;32260;52.008;4.752;2023-04-25T09:39:58;101720.72;;;10.90;52.93
46534;BME280;32260;52.008;4.752;2023-04-25T09:42:27;101723.38;;;10.92;54.13
46534;BME280;32260;52.008;4.752;2023-04-25T09:44:55;101719.03;;;10.80;52.88
46534;BME280;32260;52.008;4.752;2023-04-25T09:47:24;101716.34;;;10.81;53.04
46534;BME280;32260;52.008;4.752;2023-04-25T09:49:51;101721.69;;;10.78;53.29
46534;BME280;32260;52.008;4.752;2023-04-25T09:52:19;101729.59;;;10.84;53.39
46534;BME280;32260;52.008;4.752;2023-04-25T09:54:46;101728.66;;;10.93;53.36
46534;BME280;32260;52.008;4.752;2023-04-25T09:57:17;101734.81;;;10.98;52.99
46534;BME280;32260;52.008;4.752;2023-04-25T09:59:46;101728.53;;;11.10;52.48
46534;BME280;32260;52.008;4.752;2023-04-25T10:02:14;101718.75;;;11.17;51.55
46534;BME280;32260;52.008;4.752;2023-04-25T10:04:41;101712.34;;;11.40;51.23
46534;BME280;32260;52.008;4.752;2023-04-25T10:07:10;101725.50;;;11.55;50.46
46534;BME280;32260;52.008;4.752;2023-04-25T10:09:38;101722.69;;;11.66;49.14
46534;BME280;32260;52.008;4.752;2023-04-25T10:12:06;101727.84;;;11.83;51.21
46534;BME280;32260;52.008;4.752;2023-04-25T10:14:35;101735.75;;;11.86;49.75
46534;BME280;32260;52.008;4.752;2023-04-25T10:17:02;101728.78;;;11.76;49.44
46534;BME280;32260;52.008;4.752;2023-04-25T10:19:29;101728.84;;;11.73;49.94
46534;BME280;32260;52.008;4.752;2023-04-25T10:22:21;101729.66;;;11.78;50.38
46534;BME280;32260;52.008;4.752;2023-04-25T10:24:50;101734.16;;;11.70;49.82
46534;BME280;32260;52.008;4.752;2023-04-25T10:27:16;101729.63;;;11.82;50.46
46534;BME280;32260;52.008;4.752;2023-04-25T10:29:43;101731.28;;;11.97;49.45
46534;BME280;32260;52.008;4.752;2023-04-25T10:32:10;101732.81;;;12.16;49.16
46534;BME280;32260;52.008;4.752;2023-04-25T10:34:41;101737.13;;;12.24;48.14
46534;BME280;32260;52.008;4.752;2023-04-25T10:37:09;101728.16;;;12.33;47.90
46534;BME280;32260;52.008;4.752;2023-04-25T10:39:37;101727.09;;;12.46;47.42
46534;BME280;32260;52.008;4.752;2023-04-25T10:42:04;101724.31;;;12.54;46.76
46534;BME280;32260;52.008;4.752;2023-04-25T10:44:30;101719.69;;;12.69;46.55
46534;BME280;32260;52.008;4.752;2023-04-25T10:46:57;101718.41;;;12.94;47.58
46534;BME280;32260;52.008;4.752;2023-04-25T10:49:44;101714.50;;;13.17;46.39
46534;BME280;32260;52.008;4.752;2023-04-25T10:52:24;101716.91;;;13.33;47.30
46534;BME280;32260;52.008;4.752;2023-04-25T10:54:54;101720.31;;;13.42;47.52
46534;BME280;32260;52.008;4.752;2023-04-25T10:57:42;101720.13;;;13.52;46.24
46534;BME280;32260;52.008;4.752;2023-04-25T11:00:15;101721.25;;;13.40;47.14
46534;BME280;32260;52.008;4.752;2023-04-25T11:05:32;101734.03;;;13.16;46.59
46534;BME280;32260;52.008;4.752;2023-04-25T11:07:59;101738.63;;;13.06;47.26
46534;BME280;32260;52.008;4.752;2023-04-25T11:10:27;101745.00;;;12.96;48.32
46534;BME280;32260;52.008;4.752;2023-04-25T11:12:53;101735.34;;;12.89;48.60
46534;BME280;32260;52.008;4.752;2023-04-25T11:15:19;101736.13;;;12.95;48.93
46534;BME280;32260;52.008;4.752;2023-04-25T11:17:45;101735.06;;;13.07;49.77
46534;BME280;32260;52.008;4.752;2023-04-25T11:20:13;101742.94;;;13.14;47.77
46534;BME280;32260;52.008;4.752;2023-04-25T11:22:39;101739.44;;;13.11;48.68
46534;BME280;32260;52.008;4.752;2023-04-25T11:25:08;101738.72;;;13.00;46.75
46534;BME280;32260;52.008;4.752;2023-04-25T11:28:09;101742.28;;;12.99;44.42
46534;BME280;32260;52.008;4.752;2023-04-25T11:30:25;101736.97;;;12.99;46.02
46534;BME280;32260;52.008;4.752;2023-04-25T11:32:52;101739.19;;;13.25;47.71
46534;BME280;32260;52.008;4.752;2023-04-25T11:35:20;101738.84;;;13.49;45.27
46534;BME280;32260;52.008;4.752;2023-04-25T11:37:49;101733.94;;;13.74;42.98
46534;BME280;32260;52.008;4.752;2023-04-25T11:40:16;101740.88;;;13.83;43.49
46534;BME280;32260;52.008;4.752;2023-04-25T11:42:46;101743.41;;;13.89;43.48
46534;BME280;32260;52.008;4.752;2023-04-25T11:45:15;101742.59;;;13.85;42.06
46534;BME280;32260;52.008;4.752;2023-04-25T11:47:42;101740.81;;;13.86;42.93
46534;BME280;32260;52.008;4.752;2023-04-25T11:50:08;101742.63;;;13.84;43.10
46534;BME280;32260;52.008;4.752;2023-04-25T11:52:38;101745.34;;;13.82;42.42
46534;BME280;32260;52.008;4.752;2023-04-25T11:55:06;101748.94;;;13.78;41.79
46534;BME280;32260;52.008;4.752;2023-04-25T11:57:32;101752.31;;;13.89;42.06
46534;BME280;32260;52.008;4.752;2023-04-25T12:00:16;101752.84;;;14.05;41.87
46534;BME280;32260;52.008;4.752;2023-04-25T12:02:44;101765.84;;;13.77;39.76
46534;BME280;32260;52.008;4.752;2023-04-25T12:05:12;101763.72;;;13.46;40.87
46534;BME280;32260;52.008;4.752;2023-04-25T12:07:38;101767.66;;;13.20;40.15
46534;BME280;32260;52.008;4.752;2023-04-25T12:10:10;101768.75;;;13.07;41.65
46534;BME280;32260;52.008;4.752;2023-04-25T12:12:37;101765.84;;;13.24;42.63
46534;BME280;32260;52.008;4.752;2023-04-25T12:15:23;101767.22;;;13.50;41.78
46534;BME280;32260;52.008;4.752;2023-04-25T12:17:51;101759.75;;;13.70;41.33
46534;BME280;32260;52.008;4.752;2023-04-25T12:20:19;101767.44;;;13.87;40.18
46534;BME280;32260;52.008;4.752;2023-04-25T12:22:47;101765.50;;;13.94;40.17
46534;BME280;32260;52.008;4.752;2023-04-25T12:25:41;101764.75;;;13.87;37.96
46534;BME280;32260;52.008;4.752;2023-04-25T12:28:19;101771.94;;;13.84;40.42
46534;BME280;32260;52.008;4.752;2023-04-25T12:31:06;101777.03;;;13.96;38.93
46534;BME280;32260;52.008;4.752;2023-04-25T12:33:33;101779.91;;;13.84;39.36
46534;BME280;32260;52.008;4.752;2023-04-25T12:36:01;101781.66;;;13.86;39.34
46534;BME280;32260;52.008;4.752;2023-04-25T12:38:38;101794.63;;;14.05;38.48
46534;BME280;32260;52.008;4.752;2023-04-25T12:41:04;101782.69;;;14.24;39.88
46534;BME280;32260;52.008;4.752;2023-04-25T12:43:30;101788.28;;;14.12;39.45
46534;BME280;32260;52.008;4.752;2023-04-25T12:45:56;101787.84;;;13.88;39.15
46534;BME280;32260;52.008;4.752;2023-04-25T12:48:25;101801.66;;;13.59;39.82
46534;BME280;32260;52.008;4.752;2023-04-25T12:50:52;101793.13;;;13.37;40.15
46534;BME280;32260;52.008;4.752;2023-04-25T12:53:21;101804.84;;;13.25;41.23
46534;BME280;32260;52.008;4.752;2023-04-25T12:55:48;101802.81;;;13.44;40.56
46534;BME280;32260;52.008;4.752;2023-04-25T12:58:15;101791.66;;;13.72;40.59